createdAt,value
2023-01-11T00:01:25.671Z,3.88
2023-01-11T00:04:12.661Z,3.85
2023-01-11T00:07:03.896Z,3.83
2023-01-11T00:09:50.791Z,3.84
2023-01-11T00:12:37.805Z,3.84
2023-01-11T00:15:27.001Z,3.83
2023-01-11T00:18:16.167Z,3.82
2023-01-11T00:21:05.656Z,3.80
2023-01-11T00:23:54.862Z,3.79
2023-01-11T00:26:41.644Z,3.80
2023-01-11T00:29:28.459Z,3.79
2023-01-11T00:32:17.808Z,3.78
2023-01-11T00:35:05.111Z,3.76
2023-01-11T00:37:55.229Z,3.77
2023-01-11T00:40:42.044Z,3.74
2023-01-11T00:43:47.557Z,3.72
2023-01-11T00:46:52.820Z,3.75
2023-01-11T00:49:40.045Z,3.72
2023-01-11T00:52:29.701Z,3.73
2023-01-11T00:55:16.548Z,3.71
2023-01-11T00:58:06.413Z,3.70
2023-01-11T01:00:56.938Z,3.70
2023-01-11T01:03:43.866Z,3.70
2023-01-11T01:06:30.910Z,3.66
2023-01-11T01:09:17.791Z,3.66
2023-01-11T01:12:07.050Z,3.69
2023-01-11T01:14:53.758Z,3.71
2023-01-11T01:17:43.118Z,3.67
2023-01-11T01:20:29.851Z,3.68
2023-01-11T01:23:16.941Z,3.61
2023-01-11T01:26:05.164Z,3.62
2023-01-11T01:28:52.087Z,3.62
2023-01-11T01:31:39.352Z,3.61
2023-01-11T01:34:26.493Z,3.61
2023-01-11T01:37:15.947Z,3.64
2023-01-11T01:40:03.186Z,3.64
2023-01-11T01:42:54.383Z,3.60
2023-01-11T01:45:48.759Z,3.64
2023-01-11T01:48:36.217Z,3.64
2023-01-11T01:51:27.482Z,3.59
2023-01-11T01:54:18.631Z,3.63
2023-01-11T01:57:08.984Z,3.60
2023-01-11T01:59:57.425Z,3.62
2023-01-11T02:02:47.753Z,3.59
2023-01-11T02:05:42.010Z,3.58
2023-01-11T02:08:37.128Z,3.62
2023-01-11T02:11:31.622Z,3.57
2023-01-11T02:14:20.106Z,3.58
2023-01-11T02:17:09.374Z,3.55
2023-01-11T02:20:09.025Z,3.61
2023-01-11T02:23:10.535Z,3.56
2023-01-11T02:26:28.119Z,3.57
2023-01-11T02:29:44.673Z,3.58
2023-01-11T02:32:31.459Z,3.57
2023-01-11T02:35:35.848Z,3.55
2023-01-11T02:38:29.525Z,3.50
2023-01-11T02:41:54.627Z,3.56
2023-01-11T02:45:04.638Z,3.53
2023-01-11T02:48:01.277Z,3.55
2023-01-11T02:51:02.788Z,3.51
2023-01-11T02:54:04.542Z,3.53
2023-01-11T02:56:55.175Z,3.52
2023-01-11T02:59:42.268Z,3.47
2023-01-11T03:02:29.292Z,3.47
2023-01-11T03:05:16.165Z,3.56
2023-01-11T03:08:15.618Z,3.51
2023-01-11T03:11:10.045Z,3.55
2023-01-11T03:14:06.394Z,3.53
2023-01-11T03:17:19.276Z,3.55
2023-01-11T03:20:29.071Z,3.56
2023-01-11T03:23:21.532Z,3.51
2023-01-11T03:26:16.016Z,3.55
2023-01-11T03:29:26.869Z,3.53
2023-01-11T03:32:22.291Z,3.51
2023-01-11T03:35:20.287Z,3.55
2023-01-11T03:38:39.280Z,3.56
2023-01-11T03:41:28.875Z,3.52
2023-01-11T03:44:19.040Z,3.54
2023-01-11T03:47:08.244Z,3.52
2023-01-11T03:49:59.809Z,3.53
2023-01-11T03:52:47.051Z,3.55
2023-01-11T03:55:40.474Z,3.55
2023-01-11T03:58:27.861Z,3.55
2023-01-11T04:01:14.996Z,3.53
2023-01-11T04:04:01.894Z,3.54
2023-01-11T04:06:51.559Z,3.56
2023-01-11T04:09:38.525Z,3.54
2023-01-11T04:12:27.286Z,3.55
2023-01-11T04:15:15.211Z,3.55
2023-01-11T04:18:05.384Z,3.57
2023-01-11T04:20:52.185Z,3.56
2023-01-11T04:23:38.947Z,3.55
2023-01-11T04:26:25.740Z,3.55
2023-01-11T04:29:12.691Z,3.55
2023-01-11T04:31:59.471Z,3.54
2023-01-11T04:34:46.382Z,3.56
2023-01-11T04:37:33.144Z,3.56
2023-01-11T04:40:20.355Z,3.57
2023-01-11T04:43:07.145Z,3.57
2023-01-11T04:45:58.778Z,3.56
2023-01-11T04:48:45.571Z,3.56
2023-01-11T04:51:32.379Z,3.56
2023-01-11T04:54:19.159Z,3.56
2023-01-11T04:57:06.280Z,3.59
2023-01-11T04:59:53.071Z,3.58
2023-01-11T05:02:40.488Z,3.60
2023-01-11T05:05:27.240Z,3.59
2023-01-11T05:08:14.260Z,3.60
2023-01-11T05:11:03.591Z,3.57
2023-01-11T05:13:53.387Z,3.60
2023-01-11T05:16:40.307Z,3.60
2023-01-11T05:19:27.098Z,3.59
2023-01-11T05:22:13.911Z,3.61
2023-01-11T05:25:00.773Z,3.60
2023-01-11T05:27:47.543Z,3.61
2023-01-11T05:30:34.359Z,3.60
2023-01-11T05:33:21.177Z,3.60
2023-01-11T05:36:12.632Z,3.60
2023-01-11T05:39:02.358Z,3.61
2023-01-11T05:41:49.235Z,3.58
2023-01-11T05:44:58.228Z,3.59
2023-01-11T05:47:45.132Z,3.60
2023-01-11T05:50:31.998Z,3.59
2023-01-11T05:53:18.959Z,3.59
2023-01-11T05:56:05.933Z,3.58
2023-01-11T05:58:55.485Z,3.61
2023-01-11T06:01:42.286Z,3.62
2023-01-11T06:04:29.173Z,3.62
2023-01-11T06:07:15.983Z,3.64
2023-01-11T06:10:02.844Z,3.64
2023-01-11T06:13:26.702Z,3.62
2023-01-11T06:16:20.482Z,3.62
2023-01-11T06:23:05.933Z,3.38
2023-01-11T06:25:52.755Z,3.36
2023-01-11T06:28:39.879Z,3.34
2023-01-11T06:31:26.645Z,3.37
2023-01-11T06:34:13.417Z,3.37
2023-01-11T06:37:00.199Z,3.40
2023-01-11T06:39:46.990Z,3.39
2023-01-11T06:42:33.742Z,3.40
2023-01-11T06:45:20.789Z,3.40
2023-01-11T06:48:09.417Z,3.40
2023-01-11T06:50:59.472Z,3.39
2023-01-11T06:53:52.961Z,3.41
2023-01-11T06:56:42.349Z,3.40
2023-01-11T06:59:32.266Z,3.42
2023-01-11T07:02:19.101Z,3.42
2023-01-11T07:05:05.957Z,3.43
2023-01-11T07:07:52.808Z,3.43
2023-01-11T07:10:39.578Z,3.41
2023-01-11T07:13:26.363Z,3.40
2023-01-11T07:16:13.161Z,3.41
2023-01-11T07:19:00.003Z,3.40
2023-01-11T07:21:46.863Z,3.41
2023-01-11T07:24:33.804Z,3.43
2023-01-11T07:27:20.774Z,3.43
2023-01-11T07:30:09.872Z,3.43
2023-01-11T07:33:00.127Z,3.40
2023-01-11T07:35:48.969Z,3.42
2023-01-11T07:38:35.849Z,3.40
2023-01-11T07:41:41.454Z,3.44
2023-01-11T07:44:28.212Z,3.42
2023-01-11T07:47:14.972Z,3.43
2023-01-11T07:50:01.792Z,3.45
2023-01-11T07:52:49.189Z,3.45
2023-01-11T07:55:36.142Z,3.44
2023-01-11T07:58:23.162Z,3.43
2023-01-11T08:01:09.955Z,3.43
2023-01-11T08:03:56.928Z,3.44
2023-01-11T08:06:43.664Z,3.43
2023-01-11T08:09:30.437Z,3.46
2023-01-11T08:12:35.840Z,3.46
2023-01-11T08:15:23.687Z,3.47
2023-01-11T08:18:11.790Z,3.49
2023-01-11T08:20:58.639Z,3.47
2023-01-11T08:23:45.397Z,3.48
2023-01-11T08:26:32.156Z,3.48
2023-01-11T08:29:19.026Z,3.45
2023-01-11T08:32:06.052Z,3.46
2023-01-11T08:34:52.785Z,3.46
2023-01-11T08:37:39.525Z,3.46
2023-01-11T08:40:26.347Z,3.48
2023-01-11T08:43:13.095Z,3.48
2023-01-11T08:45:59.952Z,3.47
2023-01-11T08:48:46.939Z,3.49
2023-01-11T08:51:33.805Z,3.49
2023-01-11T08:54:20.665Z,3.49
2023-01-11T08:57:07.710Z,3.51
2023-01-11T08:59:54.555Z,3.57
2023-01-11T09:02:41.488Z,3.59
2023-01-11T09:05:28.276Z,3.67
2023-01-11T09:08:15.032Z,3.69
2023-01-11T09:11:01.872Z,3.69
2023-01-11T09:13:48.786Z,3.74
2023-01-11T09:16:35.612Z,3.76
2023-01-11T09:19:22.430Z,3.79
2023-01-11T09:22:09.232Z,3.80
2023-01-11T09:24:58.884Z,3.81
2023-01-11T09:27:46.282Z,3.82
2023-01-11T09:30:33.086Z,3.77
2023-01-11T09:33:22.201Z,3.78
2023-01-11T09:36:09.015Z,3.77
2023-01-11T09:38:57.834Z,3.80
2023-01-11T09:42:11.269Z,3.83
2023-01-11T09:45:14.237Z,3.81
2023-01-11T09:48:11.706Z,3.80
2023-01-11T09:50:59.932Z,3.75
2023-01-11T09:53:50.234Z,3.77
2023-01-11T09:56:45.735Z,3.78
2023-01-11T09:59:42.482Z,3.80
2023-01-11T10:02:41.012Z,3.80
2023-01-11T10:05:45.394Z,3.79
2023-01-11T10:18:27.727Z,3.82
2023-01-11T10:22:32.358Z,3.85
2023-01-11T10:25:40.366Z,3.88
2023-01-11T10:28:43.050Z,3.89
2023-01-11T10:31:44.838Z,3.87
2023-01-11T10:34:58.028Z,3.93
2023-01-11T10:38:04.958Z,3.92
2023-01-11T10:41:12.288Z,3.96
2023-01-11T10:44:10.469Z,3.97
2023-01-11T10:46:57.848Z,3.96
2023-01-11T10:50:06.229Z,4.00
2023-01-11T10:53:15.037Z,3.99
2023-01-11T10:56:24.540Z,4.01
2023-01-11T10:59:34.848Z,4.03
2023-01-11T11:02:43.045Z,4.03
2023-01-11T11:05:51.954Z,4.06
2023-01-11T11:08:48.400Z,4.08
2023-01-11T11:11:41.640Z,4.08
2023-01-11T11:14:39.821Z,4.08
2023-01-11T11:17:35.320Z,4.08
2023-01-11T11:20:29.380Z,4.12
2023-01-11T11:23:25.076Z,4.12
2023-01-11T11:26:15.056Z,4.08
2023-01-11T11:29:33.599Z,4.14
2023-01-11T11:33:00.260Z,4.12
2023-01-11T11:35:56.717Z,4.20
2023-01-11T11:39:11.098Z,4.22
2023-01-11T11:42:10.534Z,4.25
2023-01-11T11:45:09.572Z,4.26
2023-01-11T11:48:05.786Z,4.27
2023-01-11T11:50:54.473Z,4.29
2023-01-11T11:53:45.996Z,4.33
2023-01-11T11:56:34.344Z,4.35
2023-01-11T12:02:52.704Z,4.43
2023-01-11T12:05:51.835Z,4.50
2023-01-11T12:08:42.385Z,4.57
2023-01-11T12:11:32.789Z,4.62
2023-01-11T12:15:24.309Z,4.66
2023-01-11T12:18:25.202Z,4.73
2023-01-11T12:21:23.892Z,4.77
2023-01-11T12:24:19.306Z,4.80
2023-01-11T12:27:12.487Z,4.84
2023-01-11T12:30:08.558Z,4.86
2023-01-11T12:33:14.009Z,4.88
2023-01-11T12:36:05.980Z,4.88
2023-01-11T12:39:24.968Z,4.91
2023-01-11T12:42:45.887Z,4.92
2023-01-11T12:46:00.707Z,4.95
2023-01-11T12:49:46.551Z,4.95
2023-01-11T12:53:07.594Z,4.96
2023-01-11T12:56:12.775Z,4.97
2023-01-11T12:59:16.059Z,4.97
2023-01-11T13:02:21.628Z,4.98
2023-01-11T13:05:49.889Z,4.99
2023-01-11T13:09:04.683Z,4.98
2023-01-11T13:12:16.195Z,5.00
2023-01-11T13:15:05.884Z,5.01
2023-01-11T13:18:00.842Z,5.01
2023-01-11T13:21:01.227Z,5.02
2023-01-11T13:23:57.910Z,5.04
2023-01-11T13:26:47.668Z,5.06
2023-01-11T13:29:44.621Z,5.06
2023-01-11T13:32:34.086Z,5.06
2023-01-11T13:35:35.839Z,5.09
2023-01-11T13:38:34.894Z,5.12
2023-01-11T13:41:25.029Z,5.11
2023-01-11T13:44:25.805Z,5.12
2023-01-11T13:47:36.013Z,5.13
2023-01-11T13:50:37.639Z,5.13
2023-01-11T13:53:48.913Z,5.15
2023-01-11T13:56:44.053Z,5.16
2023-01-11T13:59:42.821Z,5.14
2023-01-11T14:02:42.362Z,5.14
2023-01-11T14:05:35.495Z,5.17
2023-01-11T14:08:47.885Z,5.19
2023-01-11T14:12:19.353Z,5.15
2023-01-11T14:15:18.425Z,5.22
2023-01-11T14:18:11.207Z,5.21
2023-01-11T14:21:17.043Z,5.17
2023-01-11T14:24:07.969Z,5.21
2023-01-11T14:27:28.265Z,5.21
2023-01-11T14:31:19.143Z,5.22
2023-01-11T14:35:01.026Z,5.23
2023-01-11T14:38:08.977Z,5.24
2023-01-11T14:41:26.914Z,5.26
2023-01-11T14:44:28.057Z,5.25
2023-01-11T14:47:35.758Z,5.19
2023-01-11T14:50:44.946Z,5.26
2023-01-11T14:53:41.228Z,5.27
2023-01-11T14:57:14.622Z,5.24
2023-01-11T15:00:27.868Z,5.22
2023-01-11T15:10:24.799Z,5.24
2023-01-11T15:13:24.075Z,5.28
2023-01-11T15:16:39.855Z,5.30
2023-01-11T15:19:29.836Z,5.24
2023-01-11T15:22:46.297Z,5.22
2023-01-11T15:25:45.501Z,5.21
2023-01-11T15:28:37.332Z,5.28
2023-01-11T15:31:47.824Z,5.26
2023-01-11T15:34:54.072Z,5.28
2023-01-11T15:37:48.752Z,5.25
2023-01-11T15:40:41.388Z,5.31
2023-01-11T15:43:40.065Z,5.31
2023-01-11T15:46:55.738Z,5.31
2023-01-11T15:50:20.311Z,5.32
2023-01-11T15:53:25.315Z,5.35
2023-01-11T15:56:43.551Z,5.35
2023-01-11T15:59:46.769Z,5.35
2023-01-11T16:02:49.944Z,5.37
2023-01-11T16:05:44.144Z,5.35
2023-01-11T16:08:44.556Z,5.32
2023-01-11T16:11:44.562Z,5.34
2023-01-11T16:15:11.699Z,5.36
2023-01-11T16:18:12.268Z,5.31
2023-01-11T16:21:09.535Z,5.37
2023-01-11T16:23:56.683Z,5.39
2023-01-11T16:26:43.838Z,5.40
2023-01-11T16:29:35.356Z,5.41
2023-01-11T16:32:37.616Z,5.39
2023-01-11T16:35:25.286Z,5.45
2023-01-11T16:38:21.397Z,5.52
2023-01-11T16:41:13.035Z,5.65
2023-01-11T16:44:03.148Z,5.75
2023-01-11T16:47:11.280Z,5.83
2023-01-11T16:50:10.554Z,5.90
2023-01-11T16:53:01.083Z,5.94
2023-01-11T16:55:56.242Z,5.96
2023-01-11T16:58:43.428Z,5.98
2023-01-11T17:01:54.426Z,6.06
2023-01-11T17:04:50.973Z,6.09
2023-01-11T17:07:37.793Z,6.12
2023-01-11T17:10:35.104Z,6.13
2023-01-11T17:13:47.248Z,6.16
2023-01-11T17:16:41.752Z,6.17
2023-01-11T17:19:30.910Z,6.17
2023-01-11T17:22:23.675Z,6.21
2023-01-11T17:25:23.503Z,6.19
2023-01-11T17:28:16.539Z,6.22
2023-01-11T17:31:05.708Z,6.17
2023-01-11T17:34:05.858Z,6.28
2023-01-11T17:36:53.625Z,6.28
2023-01-11T17:39:50.071Z,6.21
2023-01-11T17:42:55.615Z,6.24
2023-01-11T17:45:42.773Z,6.29
2023-01-11T17:48:40.055Z,6.30
2023-01-11T17:51:33.984Z,6.25
2023-01-11T17:54:25.255Z,6.24
2023-01-11T17:57:15.198Z,6.27
2023-01-11T18:00:18.676Z,6.32
2023-01-11T18:03:15.682Z,6.32
2023-01-11T18:06:23.947Z,6.33
2023-01-11T18:10:03.997Z,6.34
2023-01-11T18:12:56.086Z,6.27
2023-01-11T18:15:46.882Z,6.34
2023-01-11T18:18:53.010Z,6.33
2023-01-11T18:21:52.346Z,6.30
2023-01-11T18:24:43.360Z,6.32
2023-01-11T18:27:35.746Z,6.31
2023-01-11T18:30:31.779Z,6.32
2023-01-11T18:33:24.333Z,6.26
2023-01-11T18:36:21.581Z,6.29
2023-01-11T18:39:30.310Z,6.27
2023-01-11T18:42:36.709Z,6.32
2023-01-11T18:46:19.115Z,6.31
2023-01-11T18:49:40.933Z,6.31
2023-01-11T18:52:49.431Z,6.30
2023-01-11T18:55:42.296Z,6.32
2023-01-11T19:08:45.804Z,6.37
2023-01-11T19:26:17.090Z,6.27
2023-01-11T19:37:26.153Z,6.29
2023-01-11T19:45:14.276Z,6.30
2023-01-11T19:48:49.787Z,6.37
2023-01-11T19:52:28.982Z,6.31
2023-01-11T19:59:10.340Z,6.30
2023-01-11T20:02:02.768Z,6.32
2023-01-11T20:05:23.335Z,6.32
2023-01-11T20:08:17.871Z,6.38
2023-01-11T20:12:12.025Z,6.32
2023-01-11T20:15:46.623Z,6.33
2023-01-11T20:19:48.624Z,6.41
2023-01-11T20:23:08.909Z,6.37
2023-01-11T20:30:00.497Z,6.38
2023-01-11T20:37:24.458Z,6.35
2023-01-11T20:48:04.953Z,6.32
2023-01-11T20:58:16.468Z,6.37
2023-01-11T21:05:44.418Z,6.31
2023-01-11T21:20:13.468Z,6.28
2023-01-11T21:23:00.238Z,6.27
2023-01-11T21:25:47.167Z,6.30
2023-01-11T21:28:37.663Z,6.35
2023-01-11T21:31:39.043Z,6.33
2023-01-11T21:34:34.560Z,6.32
2023-01-11T21:37:25.945Z,6.30
2023-01-11T21:43:33.620Z,6.32
2023-01-11T21:46:23.576Z,6.35
2023-01-11T21:49:31.508Z,6.35
2023-01-11T21:52:31.716Z,6.32
2023-01-11T21:55:25.665Z,6.33
2023-01-11T21:58:22.816Z,6.34
2023-01-11T22:01:13.013Z,6.24
2023-01-11T22:04:08.786Z,6.27
2023-01-11T22:06:56.310Z,6.28
2023-01-11T22:10:03.481Z,6.32
2023-01-11T22:12:51.621Z,6.35
2023-01-11T22:15:39.274Z,6.37
2023-01-11T22:18:54.584Z,6.34
2023-01-11T22:21:44.681Z,6.37
2023-01-11T22:24:31.535Z,6.37
2023-01-11T22:27:21.284Z,6.38
2023-01-11T22:30:21.536Z,6.38
2023-01-11T22:34:06.992Z,6.35
2023-01-11T22:36:57.057Z,6.39
2023-01-11T22:39:43.871Z,6.38
2023-01-11T22:42:30.804Z,6.38
2023-01-11T22:45:18.797Z,6.40
2023-01-11T22:48:10.941Z,6.35
2023-01-11T22:50:58.660Z,6.35
2023-01-11T22:53:48.092Z,6.36
2023-01-11T22:56:34.981Z,6.40
2023-01-11T22:59:21.851Z,6.39
2023-01-11T23:02:16.007Z,6.41
2023-01-11T23:05:02.797Z,6.37
2023-01-11T23:07:49.616Z,6.38
2023-01-11T23:10:36.379Z,6.38
2023-01-11T23:13:41.860Z,6.38
2023-01-11T23:16:28.736Z,6.35
2023-01-11T23:19:23.566Z,6.36
2023-01-11T23:22:12.677Z,6.36
2023-01-11T23:25:03.588Z,6.35
2023-01-11T23:27:50.388Z,6.33
2023-01-11T23:30:38.731Z,6.37
2023-01-11T23:33:26.332Z,6.36
2023-01-11T23:36:13.773Z,6.37
2023-01-11T23:39:00.904Z,6.33
2023-01-11T23:42:09.511Z,6.34
2023-01-11T23:44:57.531Z,6.35
2023-01-11T23:47:44.321Z,6.36
2023-01-11T23:50:31.881Z,6.35
2023-01-11T23:53:13.886Z,6.29
2023-01-11T23:56:00.824Z,6.34
2023-01-11T23:58:47.605Z,6.32
